<?xml version="1.0" encoding="UTF-8" standalone="no" ?>
<gpx xmlns="http://www.topografix.com/GPX/1/1" xmlns:xsi="http://www.w3.org/2001/XMLSchema-instance" xsi:schemaLocation="http://www.topografix.com/GPX/1/1 http://www.topografix.com/GPX/1/1/gpx.xsd" version="1.1" creator="VisuGPX - https://www.visugpx.com">
  <metadata>
    <name>Les drailles des Crozes</name>
    <desc><![CDATA[Randonnée proposée sur VISORANDO et reprise par notre groupe de randonneurs.

Cette randonnée permet notamment de découvrir les vestiges de l'ancien village de Cabrières au pied du château, le hameau des Crozes, les moulins de Tiberet et les anciens chemins, « drailles » en occitan.]]></desc>
  </metadata>
  <wpt lat="43.57339" lon="3.36367">
    <ele>102</ele>
    <name><![CDATA[Parking Cave coopérative]]></name>
  </wpt>
  <wpt lat="43.57673" lon="3.36178">
    <ele>121</ele>
    <name><![CDATA[Fontaine]]></name>
  </wpt>
  <wpt lat="43.57589" lon="3.35748">
    <ele>124</ele>
    <name><![CDATA[Chemin du Château]]></name>
  </wpt>
  <wpt lat="43.57485" lon="3.35562">
    <ele>125</ele>
    <name><![CDATA[Embranchement du sentier]]></name>
  </wpt>
  <wpt lat="43.5687" lon="3.34899">
    <ele>265</ele>
    <name><![CDATA[Col de la Cisterne]]></name>
  </wpt>
  <wpt lat="43.56976" lon="3.34314">
    <ele>207</ele>
    <name><![CDATA[PR Balade Médiévale]]></name>
  </wpt>
  <wpt lat="43.57247" lon="3.33903">
    <ele>207</ele>
    <name><![CDATA[Route]]></name>
  </wpt>
  <wpt lat="43.57241" lon="3.33371">
    <ele>243</ele>
    <name><![CDATA[Départ sentier Le Mas Rouch]]></name>
  </wpt>
  <wpt lat="43.57971" lon="3.32437">
    <ele>352</ele>
    <name><![CDATA[Piste]]></name>
  </wpt>
  <wpt lat="43.57989" lon="3.32306">
    <ele>349</ele>
    <name><![CDATA[Raccourci]]></name>
  </wpt>
  <wpt lat="43.57713" lon="3.32241">
    <ele>257</ele>
    <name><![CDATA[Village les Crozes ]]></name>
  </wpt>
  <wpt lat="43.57521" lon="3.32209">
    <ele>281</ele>
    <name><![CDATA[Quitter la route]]></name>
  </wpt>
  <wpt lat="43.57513" lon="3.32075">
    <ele>299</ele>
    <name><![CDATA[Sentier en sous-bois]]></name>
  </wpt>
  <wpt lat="43.55997" lon="3.31044">
    <ele>275</ele>
    <name><![CDATA[Sentier raviné]]></name>
  </wpt>
  <wpt lat="43.56001" lon="3.32906">
    <ele>237</ele>
    <name><![CDATA[Ruines du moulin de Tibéret]]></name>
  </wpt>
  <wpt lat="43.55641" lon="3.34099">
    <ele>288</ele>
    <name><![CDATA[Jonction pour les crêtes]]></name>
  </wpt>
  <wpt lat="43.56512" lon="3.35634">
    <ele>110</ele>
    <name><![CDATA[Route à droite]]></name>
  </wpt>
  <wpt lat="43.57339" lon="3.36368">
    <ele>101</ele>
    <name><![CDATA[Parking cave coopérative]]></name>
  </wpt>
  <trk>
    <name><![CDATA[Les drailles des Crozes]]></name>
    <trkseg>
      <trkpt lat="43.57339" lon="3.36367">
        <ele>102</ele>
        <time>2021-06-12T22:01:22+02:00</time>
      </trkpt>
      <trkpt lat="43.57582" lon="3.36367">
        <ele>111</ele>
        <time>2021-06-12T22:01:27+02:00</time>
      </trkpt>
      <trkpt lat="43.57588" lon="3.36286">
        <ele>114</ele>
        <time>2021-06-12T22:01:32+02:00</time>
      </trkpt>
      <trkpt lat="43.57632" lon="3.36229">
        <ele>117</ele>
        <time>2021-06-12T22:01:37+02:00</time>
      </trkpt>
      <trkpt lat="43.57673" lon="3.36178">
        <ele>121</ele>
        <time>2021-06-12T22:01:42+02:00</time>
      </trkpt>
      <trkpt lat="43.57649" lon="3.36075">
        <ele>121</ele>
        <time>2021-06-12T22:01:47+02:00</time>
      </trkpt>
      <trkpt lat="43.57613" lon="3.35957">
        <ele>121</ele>
        <time>2021-06-12T22:01:52+02:00</time>
      </trkpt>
      <trkpt lat="43.57605" lon="3.35903">
        <ele>122</ele>
        <time>2021-06-12T22:01:57+02:00</time>
      </trkpt>
      <trkpt lat="43.57597" lon="3.35812">
        <ele>123</ele>
        <time>2021-06-12T22:02:02+02:00</time>
      </trkpt>
      <trkpt lat="43.57589" lon="3.35748">
        <ele>124</ele>
        <time>2021-06-12T22:02:07+02:00</time>
      </trkpt>
      <trkpt lat="43.57569" lon="3.35724">
        <ele>121</ele>
        <time>2021-06-12T22:02:12+02:00</time>
      </trkpt>
      <trkpt lat="43.57542" lon="3.35671">
        <ele>120</ele>
        <time>2021-06-12T22:02:17+02:00</time>
      </trkpt>
      <trkpt lat="43.57513" lon="3.35638">
        <ele>120</ele>
        <time>2021-06-12T22:02:22+02:00</time>
      </trkpt>
      <trkpt lat="43.57501" lon="3.3561">
        <ele>120</ele>
        <time>2021-06-12T22:02:27+02:00</time>
      </trkpt>
      <trkpt lat="43.575" lon="3.3557">
        <ele>121</ele>
        <time>2021-06-12T22:02:32+02:00</time>
      </trkpt>
      <trkpt lat="43.57485" lon="3.35562">
        <ele>125</ele>
        <time>2021-06-12T22:02:37+02:00</time>
      </trkpt>
      <trkpt lat="43.57468" lon="3.35551">
        <ele>129</ele>
        <time>2021-06-12T22:02:42+02:00</time>
      </trkpt>
      <trkpt lat="43.57468" lon="3.35551">
        <ele>129</ele>
        <time>2021-06-12T22:02:47+02:00</time>
      </trkpt>
      <trkpt lat="43.57424" lon="3.35502">
        <ele>137</ele>
        <time>2021-06-12T22:02:52+02:00</time>
      </trkpt>
      <trkpt lat="43.57381" lon="3.3548">
        <ele>142</ele>
        <time>2021-06-12T22:02:57+02:00</time>
      </trkpt>
      <trkpt lat="43.57335" lon="3.35473">
        <ele>149</ele>
        <time>2021-06-12T22:03:02+02:00</time>
      </trkpt>
      <trkpt lat="43.57294" lon="3.35465">
        <ele>153</ele>
        <time>2021-06-12T22:03:07+02:00</time>
      </trkpt>
      <trkpt lat="43.57225" lon="3.3542">
        <ele>159</ele>
        <time>2021-06-12T22:03:12+02:00</time>
      </trkpt>
      <trkpt lat="43.57192" lon="3.3533">
        <ele>172</ele>
        <time>2021-06-12T22:03:17+02:00</time>
      </trkpt>
      <trkpt lat="43.57169" lon="3.35285">
        <ele>179</ele>
        <time>2021-06-12T22:03:22+02:00</time>
      </trkpt>
      <trkpt lat="43.5712" lon="3.3523">
        <ele>183</ele>
        <time>2021-06-12T22:03:27+02:00</time>
      </trkpt>
      <trkpt lat="43.57063" lon="3.35192">
        <ele>192</ele>
        <time>2021-06-12T22:03:32+02:00</time>
      </trkpt>
      <trkpt lat="43.57019" lon="3.35156">
        <ele>197</ele>
        <time>2021-06-12T22:03:37+02:00</time>
      </trkpt>
      <trkpt lat="43.56978" lon="3.35111">
        <ele>202</ele>
        <time>2021-06-12T22:03:42+02:00</time>
      </trkpt>
      <trkpt lat="43.56957" lon="3.35091">
        <ele>205</ele>
        <time>2021-06-12T22:03:47+02:00</time>
      </trkpt>
      <trkpt lat="43.56955" lon="3.35069">
        <ele>210</ele>
        <time>2021-06-12T22:03:52+02:00</time>
      </trkpt>
      <trkpt lat="43.56967" lon="3.3503">
        <ele>215</ele>
        <time>2021-06-12T22:03:57+02:00</time>
      </trkpt>
      <trkpt lat="43.56969" lon="3.34994">
        <ele>220</ele>
        <time>2021-06-12T22:04:02+02:00</time>
      </trkpt>
      <trkpt lat="43.56965" lon="3.34933">
        <ele>229</ele>
        <time>2021-06-12T22:04:07+02:00</time>
      </trkpt>
      <trkpt lat="43.56965" lon="3.34933">
        <ele>229</ele>
        <time>2021-06-12T22:04:12+02:00</time>
      </trkpt>
      <trkpt lat="43.56958" lon="3.34908">
        <ele>234</ele>
        <time>2021-06-12T22:04:17+02:00</time>
      </trkpt>
      <trkpt lat="43.56943" lon="3.34891">
        <ele>242</ele>
        <time>2021-06-12T22:04:22+02:00</time>
      </trkpt>
      <trkpt lat="43.56935" lon="3.34866">
        <ele>245</ele>
        <time>2021-06-12T22:04:27+02:00</time>
      </trkpt>
      <trkpt lat="43.5693" lon="3.34827">
        <ele>243</ele>
        <time>2021-06-12T22:04:32+02:00</time>
      </trkpt>
      <trkpt lat="43.56932" lon="3.34805">
        <ele>241</ele>
        <time>2021-06-12T22:04:37+02:00</time>
      </trkpt>
      <trkpt lat="43.56913" lon="3.34792">
        <ele>256</ele>
        <time>2021-06-12T22:04:42+02:00</time>
      </trkpt>
      <trkpt lat="43.56893" lon="3.34808">
        <ele>267</ele>
        <time>2021-06-12T22:04:47+02:00</time>
      </trkpt>
      <trkpt lat="43.56892" lon="3.34845">
        <ele>267</ele>
        <time>2021-06-12T22:04:52+02:00</time>
      </trkpt>
      <trkpt lat="43.56884" lon="3.34875">
        <ele>270</ele>
        <time>2021-06-12T22:04:57+02:00</time>
      </trkpt>
      <trkpt lat="43.56877" lon="3.34869">
        <ele>270</ele>
        <time>2021-06-12T22:05:02+02:00</time>
      </trkpt>
      <trkpt lat="43.56874" lon="3.34862">
        <ele>272</ele>
        <time>2021-06-12T22:05:07+02:00</time>
      </trkpt>
      <trkpt lat="43.5687" lon="3.34883">
        <ele>269</ele>
        <time>2021-06-12T22:05:12+02:00</time>
      </trkpt>
      <trkpt lat="43.5687" lon="3.34899">
        <ele>265</ele>
        <time>2021-06-12T22:05:17+02:00</time>
      </trkpt>
      <trkpt lat="43.56855" lon="3.34911">
        <ele>254</ele>
        <time>2021-06-12T22:05:22+02:00</time>
      </trkpt>
      <trkpt lat="43.5684" lon="3.34916">
        <ele>244</ele>
        <time>2021-06-12T22:05:27+02:00</time>
      </trkpt>
      <trkpt lat="43.5681" lon="3.34919">
        <ele>232</ele>
        <time>2021-06-12T22:05:32+02:00</time>
      </trkpt>
      <trkpt lat="43.5681" lon="3.34919">
        <ele>232</ele>
        <time>2021-06-12T22:05:37+02:00</time>
      </trkpt>
      <trkpt lat="43.56793" lon="3.34918">
        <ele>224</ele>
        <time>2021-06-12T22:05:42+02:00</time>
      </trkpt>
      <trkpt lat="43.56789" lon="3.34928">
        <ele>221</ele>
        <time>2021-06-12T22:05:47+02:00</time>
      </trkpt>
      <trkpt lat="43.56784" lon="3.34933">
        <ele>217</ele>
        <time>2021-06-12T22:05:52+02:00</time>
      </trkpt>
      <trkpt lat="43.56764" lon="3.34908">
        <ele>213</ele>
        <time>2021-06-12T22:05:57+02:00</time>
      </trkpt>
      <trkpt lat="43.56758" lon="3.34897">
        <ele>212</ele>
        <time>2021-06-12T22:06:02+02:00</time>
      </trkpt>
      <trkpt lat="43.56754" lon="3.34866">
        <ele>214</ele>
        <time>2021-06-12T22:06:07+02:00</time>
      </trkpt>
      <trkpt lat="43.56747" lon="3.34841">
        <ele>215</ele>
        <time>2021-06-12T22:06:12+02:00</time>
      </trkpt>
      <trkpt lat="43.5674" lon="3.34826">
        <ele>214</ele>
        <time>2021-06-12T22:06:17+02:00</time>
      </trkpt>
      <trkpt lat="43.56731" lon="3.34825">
        <ele>211</ele>
        <time>2021-06-12T22:06:22+02:00</time>
      </trkpt>
      <trkpt lat="43.56726" lon="3.34804">
        <ele>211</ele>
        <time>2021-06-12T22:06:27+02:00</time>
      </trkpt>
      <trkpt lat="43.56728" lon="3.34791">
        <ele>214</ele>
        <time>2021-06-12T22:06:32+02:00</time>
      </trkpt>
      <trkpt lat="43.56725" lon="3.34771">
        <ele>215</ele>
        <time>2021-06-12T22:06:37+02:00</time>
      </trkpt>
      <trkpt lat="43.56723" lon="3.34752">
        <ele>215</ele>
        <time>2021-06-12T22:06:42+02:00</time>
      </trkpt>
      <trkpt lat="43.56723" lon="3.34739">
        <ele>216</ele>
        <time>2021-06-12T22:06:47+02:00</time>
      </trkpt>
      <trkpt lat="43.56724" lon="3.3473">
        <ele>217</ele>
        <time>2021-06-12T22:06:52+02:00</time>
      </trkpt>
      <trkpt lat="43.56725" lon="3.34695">
        <ele>217</ele>
        <time>2021-06-12T22:06:57+02:00</time>
      </trkpt>
      <trkpt lat="43.56725" lon="3.34695">
        <ele>217</ele>
        <time>2021-06-12T22:07:02+02:00</time>
      </trkpt>
      <trkpt lat="43.5673" lon="3.34691">
        <ele>220</ele>
        <time>2021-06-12T22:07:07+02:00</time>
      </trkpt>
      <trkpt lat="43.56737" lon="3.34677">
        <ele>222</ele>
        <time>2021-06-12T22:07:12+02:00</time>
      </trkpt>
      <trkpt lat="43.56751" lon="3.34664">
        <ele>226</ele>
        <time>2021-06-12T22:07:17+02:00</time>
      </trkpt>
      <trkpt lat="43.56767" lon="3.34633">
        <ele>224</ele>
        <time>2021-06-12T22:07:22+02:00</time>
      </trkpt>
      <trkpt lat="43.56787" lon="3.34612">
        <ele>224</ele>
        <time>2021-06-12T22:07:27+02:00</time>
      </trkpt>
      <trkpt lat="43.56807" lon="3.34598">
        <ele>224</ele>
        <time>2021-06-12T22:07:32+02:00</time>
      </trkpt>
      <trkpt lat="43.56834" lon="3.34591">
        <ele>228</ele>
        <time>2021-06-12T22:07:37+02:00</time>
      </trkpt>
      <trkpt lat="43.56863" lon="3.34587">
        <ele>232</ele>
        <time>2021-06-12T22:07:42+02:00</time>
      </trkpt>
      <trkpt lat="43.56884" lon="3.3458">
        <ele>231</ele>
        <time>2021-06-12T22:07:47+02:00</time>
      </trkpt>
      <trkpt lat="43.56909" lon="3.34578">
        <ele>228</ele>
        <time>2021-06-12T22:07:52+02:00</time>
      </trkpt>
      <trkpt lat="43.56915" lon="3.34555">
        <ele>223</ele>
        <time>2021-06-12T22:07:57+02:00</time>
      </trkpt>
      <trkpt lat="43.56911" lon="3.34517">
        <ele>216</ele>
        <time>2021-06-12T22:08:02+02:00</time>
      </trkpt>
      <trkpt lat="43.56919" lon="3.3449">
        <ele>214</ele>
        <time>2021-06-12T22:08:07+02:00</time>
      </trkpt>
      <trkpt lat="43.56924" lon="3.34458">
        <ele>213</ele>
        <time>2021-06-12T22:08:12+02:00</time>
      </trkpt>
      <trkpt lat="43.5693" lon="3.34427">
        <ele>212</ele>
        <time>2021-06-12T22:08:17+02:00</time>
      </trkpt>
      <trkpt lat="43.5694" lon="3.34424">
        <ele>213</ele>
        <time>2021-06-12T22:08:22+02:00</time>
      </trkpt>
      <trkpt lat="43.5694" lon="3.34424">
        <ele>213</ele>
        <time>2021-06-12T22:08:27+02:00</time>
      </trkpt>
      <trkpt lat="43.56951" lon="3.34431">
        <ele>216</ele>
        <time>2021-06-12T22:08:32+02:00</time>
      </trkpt>
      <trkpt lat="43.56976" lon="3.34419">
        <ele>215</ele>
        <time>2021-06-12T22:08:37+02:00</time>
      </trkpt>
      <trkpt lat="43.56992" lon="3.3437">
        <ele>211</ele>
        <time>2021-06-12T22:08:42+02:00</time>
      </trkpt>
      <trkpt lat="43.56986" lon="3.34337">
        <ele>210</ele>
        <time>2021-06-12T22:08:47+02:00</time>
      </trkpt>
      <trkpt lat="43.56976" lon="3.34314">
        <ele>207</ele>
        <time>2021-06-12T22:08:52+02:00</time>
      </trkpt>
      <trkpt lat="43.56987" lon="3.34234">
        <ele>215</ele>
        <time>2021-06-12T22:08:57+02:00</time>
      </trkpt>
      <trkpt lat="43.56993" lon="3.34147">
        <ele>216</ele>
        <time>2021-06-12T22:09:02+02:00</time>
      </trkpt>
      <trkpt lat="43.56997" lon="3.34064">
        <ele>214</ele>
        <time>2021-06-12T22:09:07+02:00</time>
      </trkpt>
      <trkpt lat="43.5701" lon="3.34035">
        <ele>215</ele>
        <time>2021-06-12T22:09:12+02:00</time>
      </trkpt>
      <trkpt lat="43.5703" lon="3.33995">
        <ele>213</ele>
        <time>2021-06-12T22:09:17+02:00</time>
      </trkpt>
      <trkpt lat="43.57098" lon="3.3395">
        <ele>212</ele>
        <time>2021-06-12T22:09:22+02:00</time>
      </trkpt>
      <trkpt lat="43.57141" lon="3.33947">
        <ele>210</ele>
        <time>2021-06-12T22:09:27+02:00</time>
      </trkpt>
      <trkpt lat="43.57169" lon="3.33939">
        <ele>207</ele>
        <time>2021-06-12T22:09:32+02:00</time>
      </trkpt>
      <trkpt lat="43.57196" lon="3.33924">
        <ele>206</ele>
        <time>2021-06-12T22:09:37+02:00</time>
      </trkpt>
      <trkpt lat="43.5722" lon="3.33921">
        <ele>204</ele>
        <time>2021-06-12T22:09:42+02:00</time>
      </trkpt>
      <trkpt lat="43.57247" lon="3.33903">
        <ele>207</ele>
        <time>2021-06-12T22:09:47+02:00</time>
      </trkpt>
      <trkpt lat="43.57247" lon="3.33903">
        <ele>207</ele>
        <time>2021-06-12T22:09:52+02:00</time>
      </trkpt>
      <trkpt lat="43.57261" lon="3.33883">
        <ele>209</ele>
        <time>2021-06-12T22:09:57+02:00</time>
      </trkpt>
      <trkpt lat="43.57268" lon="3.33854">
        <ele>213</ele>
        <time>2021-06-12T22:10:02+02:00</time>
      </trkpt>
      <trkpt lat="43.57251" lon="3.3381">
        <ele>216</ele>
        <time>2021-06-12T22:10:07+02:00</time>
      </trkpt>
      <trkpt lat="43.57219" lon="3.33742">
        <ele>224</ele>
        <time>2021-06-12T22:10:12+02:00</time>
      </trkpt>
      <trkpt lat="43.57197" lon="3.33692">
        <ele>223</ele>
        <time>2021-06-12T22:10:17+02:00</time>
      </trkpt>
      <trkpt lat="43.57184" lon="3.33627">
        <ele>226</ele>
        <time>2021-06-12T22:10:22+02:00</time>
      </trkpt>
      <trkpt lat="43.57181" lon="3.33597">
        <ele>227</ele>
        <time>2021-06-12T22:10:27+02:00</time>
      </trkpt>
      <trkpt lat="43.57199" lon="3.33545">
        <ele>231</ele>
        <time>2021-06-12T22:10:32+02:00</time>
      </trkpt>
      <trkpt lat="43.57225" lon="3.33496">
        <ele>235</ele>
        <time>2021-06-12T22:10:37+02:00</time>
      </trkpt>
      <trkpt lat="43.57227" lon="3.33445">
        <ele>238</ele>
        <time>2021-06-12T22:10:42+02:00</time>
      </trkpt>
      <trkpt lat="43.57229" lon="3.33411">
        <ele>240</ele>
        <time>2021-06-12T22:10:47+02:00</time>
      </trkpt>
      <trkpt lat="43.57241" lon="3.33371">
        <ele>243</ele>
        <time>2021-06-12T22:10:52+02:00</time>
      </trkpt>
      <trkpt lat="43.57258" lon="3.33338">
        <ele>246</ele>
        <time>2021-06-12T22:10:57+02:00</time>
      </trkpt>
      <trkpt lat="43.57274" lon="3.3331">
        <ele>249</ele>
        <time>2021-06-12T22:11:02+02:00</time>
      </trkpt>
      <trkpt lat="43.57289" lon="3.33276">
        <ele>254</ele>
        <time>2021-06-12T22:11:07+02:00</time>
      </trkpt>
      <trkpt lat="43.57309" lon="3.33229">
        <ele>266</ele>
        <time>2021-06-12T22:11:12+02:00</time>
      </trkpt>
      <trkpt lat="43.57309" lon="3.33229">
        <ele>266</ele>
        <time>2021-06-12T22:11:17+02:00</time>
      </trkpt>
      <trkpt lat="43.57335" lon="3.33178">
        <ele>276</ele>
        <time>2021-06-12T22:11:22+02:00</time>
      </trkpt>
      <trkpt lat="43.57347" lon="3.33163">
        <ele>280</ele>
        <time>2021-06-12T22:11:27+02:00</time>
      </trkpt>
      <trkpt lat="43.57375" lon="3.33099">
        <ele>289</ele>
        <time>2021-06-12T22:11:32+02:00</time>
      </trkpt>
      <trkpt lat="43.57395" lon="3.33063">
        <ele>297</ele>
        <time>2021-06-12T22:11:37+02:00</time>
      </trkpt>
      <trkpt lat="43.57418" lon="3.32991">
        <ele>308</ele>
        <time>2021-06-12T22:11:42+02:00</time>
      </trkpt>
      <trkpt lat="43.57421" lon="3.32985">
        <ele>309</ele>
        <time>2021-06-12T22:11:47+02:00</time>
      </trkpt>
      <trkpt lat="43.57441" lon="3.32944">
        <ele>316</ele>
        <time>2021-06-12T22:11:52+02:00</time>
      </trkpt>
      <trkpt lat="43.57458" lon="3.3291">
        <ele>320</ele>
        <time>2021-06-12T22:11:57+02:00</time>
      </trkpt>
      <trkpt lat="43.57477" lon="3.32889">
        <ele>323</ele>
        <time>2021-06-12T22:12:02+02:00</time>
      </trkpt>
      <trkpt lat="43.57522" lon="3.32843">
        <ele>330</ele>
        <time>2021-06-12T22:12:07+02:00</time>
      </trkpt>
      <trkpt lat="43.57555" lon="3.328">
        <ele>336</ele>
        <time>2021-06-12T22:12:12+02:00</time>
      </trkpt>
      <trkpt lat="43.57579" lon="3.32776">
        <ele>339</ele>
        <time>2021-06-12T22:12:17+02:00</time>
      </trkpt>
      <trkpt lat="43.57593" lon="3.32759">
        <ele>341</ele>
        <time>2021-06-12T22:12:22+02:00</time>
      </trkpt>
      <trkpt lat="43.5762" lon="3.32732">
        <ele>344</ele>
        <time>2021-06-12T22:12:27+02:00</time>
      </trkpt>
      <trkpt lat="43.57647" lon="3.32722">
        <ele>347</ele>
        <time>2021-06-12T22:12:32+02:00</time>
      </trkpt>
      <trkpt lat="43.57675" lon="3.32702">
        <ele>350</ele>
        <time>2021-06-12T22:12:37+02:00</time>
      </trkpt>
      <trkpt lat="43.57675" lon="3.32702">
        <ele>350</ele>
        <time>2021-06-12T22:12:42+02:00</time>
      </trkpt>
      <trkpt lat="43.57719" lon="3.32675">
        <ele>353</ele>
        <time>2021-06-12T22:12:47+02:00</time>
      </trkpt>
      <trkpt lat="43.57745" lon="3.32649">
        <ele>356</ele>
        <time>2021-06-12T22:12:52+02:00</time>
      </trkpt>
      <trkpt lat="43.57774" lon="3.326">
        <ele>358</ele>
        <time>2021-06-12T22:12:57+02:00</time>
      </trkpt>
      <trkpt lat="43.57803" lon="3.32559">
        <ele>358</ele>
        <time>2021-06-12T22:13:02+02:00</time>
      </trkpt>
      <trkpt lat="43.57836" lon="3.32538">
        <ele>358</ele>
        <time>2021-06-12T22:13:07+02:00</time>
      </trkpt>
      <trkpt lat="43.57888" lon="3.32519">
        <ele>356</ele>
        <time>2021-06-12T22:13:12+02:00</time>
      </trkpt>
      <trkpt lat="43.57917" lon="3.32501">
        <ele>352</ele>
        <time>2021-06-12T22:13:17+02:00</time>
      </trkpt>
      <trkpt lat="43.57943" lon="3.32473">
        <ele>350</ele>
        <time>2021-06-12T22:13:22+02:00</time>
      </trkpt>
      <trkpt lat="43.57971" lon="3.32437">
        <ele>352</ele>
        <time>2021-06-12T22:13:27+02:00</time>
      </trkpt>
      <trkpt lat="43.57974" lon="3.32407">
        <ele>353</ele>
        <time>2021-06-12T22:13:32+02:00</time>
      </trkpt>
      <trkpt lat="43.57978" lon="3.32356">
        <ele>351</ele>
        <time>2021-06-12T22:13:37+02:00</time>
      </trkpt>
      <trkpt lat="43.57989" lon="3.32306">
        <ele>349</ele>
        <time>2021-06-12T22:13:42+02:00</time>
      </trkpt>
      <trkpt lat="43.57987" lon="3.32255">
        <ele>340</ele>
        <time>2021-06-12T22:13:47+02:00</time>
      </trkpt>
      <trkpt lat="43.57983" lon="3.32222">
        <ele>337</ele>
        <time>2021-06-12T22:13:52+02:00</time>
      </trkpt>
      <trkpt lat="43.57975" lon="3.32196">
        <ele>335</ele>
        <time>2021-06-12T22:13:57+02:00</time>
      </trkpt>
      <trkpt lat="43.57963" lon="3.32174">
        <ele>329</ele>
        <time>2021-06-12T22:14:02+02:00</time>
      </trkpt>
      <trkpt lat="43.57959" lon="3.3218">
        <ele>328</ele>
        <time>2021-06-12T22:14:07+02:00</time>
      </trkpt>
      <trkpt lat="43.57939" lon="3.32173">
        <ele>321</ele>
        <time>2021-06-12T22:14:12+02:00</time>
      </trkpt>
      <trkpt lat="43.57928" lon="3.32161">
        <ele>316</ele>
        <time>2021-06-12T22:14:17+02:00</time>
      </trkpt>
      <trkpt lat="43.57911" lon="3.32143">
        <ele>309</ele>
        <time>2021-06-12T22:14:22+02:00</time>
      </trkpt>
      <trkpt lat="43.57898" lon="3.32156">
        <ele>304</ele>
        <time>2021-06-12T22:14:27+02:00</time>
      </trkpt>
      <trkpt lat="43.57892" lon="3.32173">
        <ele>300</ele>
        <time>2021-06-12T22:14:32+02:00</time>
      </trkpt>
      <trkpt lat="43.57888" lon="3.322">
        <ele>294</ele>
        <time>2021-06-12T22:14:37+02:00</time>
      </trkpt>
      <trkpt lat="43.57883" lon="3.32219">
        <ele>294</ele>
        <time>2021-06-12T22:14:42+02:00</time>
      </trkpt>
      <trkpt lat="43.57858" lon="3.3222">
        <ele>287</ele>
        <time>2021-06-12T22:14:47+02:00</time>
      </trkpt>
      <trkpt lat="43.57837" lon="3.32253">
        <ele>285</ele>
        <time>2021-06-12T22:14:52+02:00</time>
      </trkpt>
      <trkpt lat="43.57818" lon="3.32252">
        <ele>281</ele>
        <time>2021-06-12T22:14:57+02:00</time>
      </trkpt>
      <trkpt lat="43.57802" lon="3.32242">
        <ele>276</ele>
        <time>2021-06-12T22:15:02+02:00</time>
      </trkpt>
      <trkpt lat="43.57781" lon="3.32242">
        <ele>272</ele>
        <time>2021-06-12T22:15:07+02:00</time>
      </trkpt>
      <trkpt lat="43.57767" lon="3.32249">
        <ele>271</ele>
        <time>2021-06-12T22:15:12+02:00</time>
      </trkpt>
      <trkpt lat="43.57754" lon="3.32255">
        <ele>271</ele>
        <time>2021-06-12T22:15:17+02:00</time>
      </trkpt>
      <trkpt lat="43.5774" lon="3.32252">
        <ele>267</ele>
        <time>2021-06-12T22:15:22+02:00</time>
      </trkpt>
      <trkpt lat="43.57721" lon="3.32248">
        <ele>261</ele>
        <time>2021-06-12T22:15:27+02:00</time>
      </trkpt>
      <trkpt lat="43.57713" lon="3.32241">
        <ele>257</ele>
        <time>2021-06-12T22:15:32+02:00</time>
      </trkpt>
      <trkpt lat="43.57713" lon="3.32241">
        <ele>257</ele>
        <time>2021-06-12T22:15:37+02:00</time>
      </trkpt>
      <trkpt lat="43.57705" lon="3.32228">
        <ele>253</ele>
        <time>2021-06-12T22:15:42+02:00</time>
      </trkpt>
      <trkpt lat="43.57705" lon="3.32214">
        <ele>251</ele>
        <time>2021-06-12T22:15:47+02:00</time>
      </trkpt>
      <trkpt lat="43.57696" lon="3.32202">
        <ele>251</ele>
        <time>2021-06-12T22:15:52+02:00</time>
      </trkpt>
      <trkpt lat="43.57678" lon="3.322">
        <ele>255</ele>
        <time>2021-06-12T22:15:57+02:00</time>
      </trkpt>
      <trkpt lat="43.5765" lon="3.32205">
        <ele>260</ele>
        <time>2021-06-12T22:16:02+02:00</time>
      </trkpt>
      <trkpt lat="43.57629" lon="3.32205">
        <ele>266</ele>
        <time>2021-06-12T22:16:07+02:00</time>
      </trkpt>
      <trkpt lat="43.57612" lon="3.32199">
        <ele>273</ele>
        <time>2021-06-12T22:16:12+02:00</time>
      </trkpt>
      <trkpt lat="43.57582" lon="3.32176">
        <ele>281</ele>
        <time>2021-06-12T22:16:17+02:00</time>
      </trkpt>
      <trkpt lat="43.57576" lon="3.32172">
        <ele>281</ele>
        <time>2021-06-12T22:16:22+02:00</time>
      </trkpt>
      <trkpt lat="43.57568" lon="3.32156">
        <ele>282</ele>
        <time>2021-06-12T22:16:27+02:00</time>
      </trkpt>
      <trkpt lat="43.57556" lon="3.32165">
        <ele>279</ele>
        <time>2021-06-12T22:16:32+02:00</time>
      </trkpt>
      <trkpt lat="43.5754" lon="3.3219">
        <ele>280</ele>
        <time>2021-06-12T22:16:37+02:00</time>
      </trkpt>
      <trkpt lat="43.5753" lon="3.32205">
        <ele>279</ele>
        <time>2021-06-12T22:16:42+02:00</time>
      </trkpt>
      <trkpt lat="43.57521" lon="3.32209">
        <ele>281</ele>
        <time>2021-06-12T22:16:47+02:00</time>
      </trkpt>
      <trkpt lat="43.57522" lon="3.32195">
        <ele>283</ele>
        <time>2021-06-12T22:16:52+02:00</time>
      </trkpt>
      <trkpt lat="43.57529" lon="3.32176">
        <ele>284</ele>
        <time>2021-06-12T22:16:57+02:00</time>
      </trkpt>
      <trkpt lat="43.57529" lon="3.32176">
        <ele>284</ele>
        <time>2021-06-12T22:17:02+02:00</time>
      </trkpt>
      <trkpt lat="43.5753" lon="3.32162">
        <ele>286</ele>
        <time>2021-06-12T22:17:07+02:00</time>
      </trkpt>
      <trkpt lat="43.57513" lon="3.32075">
        <ele>299</ele>
        <time>2021-06-12T22:17:12+02:00</time>
      </trkpt>
      <trkpt lat="43.57498" lon="3.32028">
        <ele>305</ele>
        <time>2021-06-12T22:17:17+02:00</time>
      </trkpt>
      <trkpt lat="43.57487" lon="3.32016">
        <ele>309</ele>
        <time>2021-06-12T22:17:22+02:00</time>
      </trkpt>
      <trkpt lat="43.57449" lon="3.31894">
        <ele>328</ele>
        <time>2021-06-12T22:17:27+02:00</time>
      </trkpt>
      <trkpt lat="43.57431" lon="3.31855">
        <ele>336</ele>
        <time>2021-06-12T22:17:32+02:00</time>
      </trkpt>
      <trkpt lat="43.57402" lon="3.31782">
        <ele>344</ele>
        <time>2021-06-12T22:17:37+02:00</time>
      </trkpt>
      <trkpt lat="43.57381" lon="3.31746">
        <ele>346</ele>
        <time>2021-06-12T22:17:42+02:00</time>
      </trkpt>
      <trkpt lat="43.57386" lon="3.31689">
        <ele>351</ele>
        <time>2021-06-12T22:17:47+02:00</time>
      </trkpt>
      <trkpt lat="43.57381" lon="3.31658">
        <ele>351</ele>
        <time>2021-06-12T22:17:52+02:00</time>
      </trkpt>
      <trkpt lat="43.57367" lon="3.3161">
        <ele>346</ele>
        <time>2021-06-12T22:17:57+02:00</time>
      </trkpt>
      <trkpt lat="43.57375" lon="3.31564">
        <ele>344</ele>
        <time>2021-06-12T22:18:02+02:00</time>
      </trkpt>
      <trkpt lat="43.57392" lon="3.31526">
        <ele>345</ele>
        <time>2021-06-12T22:18:07+02:00</time>
      </trkpt>
      <trkpt lat="43.57396" lon="3.31499">
        <ele>343</ele>
        <time>2021-06-12T22:18:12+02:00</time>
      </trkpt>
      <trkpt lat="43.57396" lon="3.31469">
        <ele>341</ele>
        <time>2021-06-12T22:18:17+02:00</time>
      </trkpt>
      <trkpt lat="43.57383" lon="3.31439">
        <ele>337</ele>
        <time>2021-06-12T22:18:22+02:00</time>
      </trkpt>
      <trkpt lat="43.57383" lon="3.31439">
        <ele>337</ele>
        <time>2021-06-12T22:18:27+02:00</time>
      </trkpt>
      <trkpt lat="43.57365" lon="3.31402">
        <ele>333</ele>
        <time>2021-06-12T22:18:32+02:00</time>
      </trkpt>
      <trkpt lat="43.57327" lon="3.31392">
        <ele>329</ele>
        <time>2021-06-12T22:18:37+02:00</time>
      </trkpt>
      <trkpt lat="43.57249" lon="3.31401">
        <ele>323</ele>
        <time>2021-06-12T22:18:42+02:00</time>
      </trkpt>
      <trkpt lat="43.57195" lon="3.31399">
        <ele>323</ele>
        <time>2021-06-12T22:18:47+02:00</time>
      </trkpt>
      <trkpt lat="43.57157" lon="3.31379">
        <ele>320</ele>
        <time>2021-06-12T22:18:52+02:00</time>
      </trkpt>
      <trkpt lat="43.57105" lon="3.31331">
        <ele>313</ele>
        <time>2021-06-12T22:18:57+02:00</time>
      </trkpt>
      <trkpt lat="43.57075" lon="3.31293">
        <ele>306</ele>
        <time>2021-06-12T22:19:02+02:00</time>
      </trkpt>
      <trkpt lat="43.57064" lon="3.31274">
        <ele>302</ele>
        <time>2021-06-12T22:19:07+02:00</time>
      </trkpt>
      <trkpt lat="43.57042" lon="3.31289">
        <ele>301</ele>
        <time>2021-06-12T22:19:12+02:00</time>
      </trkpt>
      <trkpt lat="43.56993" lon="3.31309">
        <ele>298</ele>
        <time>2021-06-12T22:19:17+02:00</time>
      </trkpt>
      <trkpt lat="43.56957" lon="3.31331">
        <ele>296</ele>
        <time>2021-06-12T22:19:22+02:00</time>
      </trkpt>
      <trkpt lat="43.56928" lon="3.31357">
        <ele>297</ele>
        <time>2021-06-12T22:19:27+02:00</time>
      </trkpt>
      <trkpt lat="43.56887" lon="3.31379">
        <ele>298</ele>
        <time>2021-06-12T22:19:32+02:00</time>
      </trkpt>
      <trkpt lat="43.56833" lon="3.31382">
        <ele>301</ele>
        <time>2021-06-12T22:19:37+02:00</time>
      </trkpt>
      <trkpt lat="43.56799" lon="3.31386">
        <ele>299</ele>
        <time>2021-06-12T22:19:42+02:00</time>
      </trkpt>
      <trkpt lat="43.5677" lon="3.31405">
        <ele>298</ele>
        <time>2021-06-12T22:19:47+02:00</time>
      </trkpt>
      <trkpt lat="43.5677" lon="3.31405">
        <ele>298</ele>
        <time>2021-06-12T22:19:52+02:00</time>
      </trkpt>
      <trkpt lat="43.56743" lon="3.31403">
        <ele>294</ele>
        <time>2021-06-12T22:19:57+02:00</time>
      </trkpt>
      <trkpt lat="43.56659" lon="3.31402">
        <ele>286</ele>
        <time>2021-06-12T22:20:02+02:00</time>
      </trkpt>
      <trkpt lat="43.56644" lon="3.31414">
        <ele>283</ele>
        <time>2021-06-12T22:20:07+02:00</time>
      </trkpt>
      <trkpt lat="43.56628" lon="3.31417">
        <ele>282</ele>
        <time>2021-06-12T22:20:12+02:00</time>
      </trkpt>
      <trkpt lat="43.5661" lon="3.31407">
        <ele>281</ele>
        <time>2021-06-12T22:20:17+02:00</time>
      </trkpt>
      <trkpt lat="43.56536" lon="3.31395">
        <ele>279</ele>
        <time>2021-06-12T22:20:22+02:00</time>
      </trkpt>
      <trkpt lat="43.56443" lon="3.31372">
        <ele>277</ele>
        <time>2021-06-12T22:20:27+02:00</time>
      </trkpt>
      <trkpt lat="43.56417" lon="3.31367">
        <ele>279</ele>
        <time>2021-06-12T22:20:32+02:00</time>
      </trkpt>
      <trkpt lat="43.56395" lon="3.31356">
        <ele>280</ele>
        <time>2021-06-12T22:20:37+02:00</time>
      </trkpt>
      <trkpt lat="43.56367" lon="3.31334">
        <ele>284</ele>
        <time>2021-06-12T22:20:42+02:00</time>
      </trkpt>
      <trkpt lat="43.56345" lon="3.31307">
        <ele>286</ele>
        <time>2021-06-12T22:20:47+02:00</time>
      </trkpt>
      <trkpt lat="43.56304" lon="3.31281">
        <ele>289</ele>
        <time>2021-06-12T22:20:52+02:00</time>
      </trkpt>
      <trkpt lat="43.5626" lon="3.31237">
        <ele>284</ele>
        <time>2021-06-12T22:20:57+02:00</time>
      </trkpt>
      <trkpt lat="43.56204" lon="3.31156">
        <ele>277</ele>
        <time>2021-06-12T22:21:02+02:00</time>
      </trkpt>
      <trkpt lat="43.56162" lon="3.31078">
        <ele>274</ele>
        <time>2021-06-12T22:21:07+02:00</time>
      </trkpt>
      <trkpt lat="43.56146" lon="3.3105">
        <ele>274</ele>
        <time>2021-06-12T22:21:12+02:00</time>
      </trkpt>
      <trkpt lat="43.56146" lon="3.3105">
        <ele>274</ele>
        <time>2021-06-12T22:21:17+02:00</time>
      </trkpt>
      <trkpt lat="43.56129" lon="3.31034">
        <ele>272</ele>
        <time>2021-06-12T22:21:22+02:00</time>
      </trkpt>
      <trkpt lat="43.56113" lon="3.31023">
        <ele>272</ele>
        <time>2021-06-12T22:21:27+02:00</time>
      </trkpt>
      <trkpt lat="43.56086" lon="3.31029">
        <ele>273</ele>
        <time>2021-06-12T22:21:32+02:00</time>
      </trkpt>
      <trkpt lat="43.56065" lon="3.31036">
        <ele>275</ele>
        <time>2021-06-12T22:21:37+02:00</time>
      </trkpt>
      <trkpt lat="43.56042" lon="3.31045">
        <ele>275</ele>
        <time>2021-06-12T22:21:42+02:00</time>
      </trkpt>
      <trkpt lat="43.56026" lon="3.31045">
        <ele>276</ele>
        <time>2021-06-12T22:21:47+02:00</time>
      </trkpt>
      <trkpt lat="43.56007" lon="3.3104">
        <ele>276</ele>
        <time>2021-06-12T22:21:52+02:00</time>
      </trkpt>
      <trkpt lat="43.55997" lon="3.31044">
        <ele>275</ele>
        <time>2021-06-12T22:21:57+02:00</time>
      </trkpt>
      <trkpt lat="43.55992" lon="3.31063">
        <ele>275</ele>
        <time>2021-06-12T22:22:02+02:00</time>
      </trkpt>
      <trkpt lat="43.56004" lon="3.311">
        <ele>268</ele>
        <time>2021-06-12T22:22:07+02:00</time>
      </trkpt>
      <trkpt lat="43.56018" lon="3.31145">
        <ele>258</ele>
        <time>2021-06-12T22:22:12+02:00</time>
      </trkpt>
      <trkpt lat="43.56023" lon="3.31206">
        <ele>256</ele>
        <time>2021-06-12T22:22:17+02:00</time>
      </trkpt>
      <trkpt lat="43.56058" lon="3.31279">
        <ele>249</ele>
        <time>2021-06-12T22:22:22+02:00</time>
      </trkpt>
      <trkpt lat="43.56053" lon="3.31379">
        <ele>246</ele>
        <time>2021-06-12T22:22:27+02:00</time>
      </trkpt>
      <trkpt lat="43.56035" lon="3.31492">
        <ele>244</ele>
        <time>2021-06-12T22:22:32+02:00</time>
      </trkpt>
      <trkpt lat="43.5603" lon="3.31522">
        <ele>243</ele>
        <time>2021-06-12T22:22:37+02:00</time>
      </trkpt>
      <trkpt lat="43.5603" lon="3.31522">
        <ele>243</ele>
        <time>2021-06-12T22:22:42+02:00</time>
      </trkpt>
      <trkpt lat="43.56017" lon="3.31544">
        <ele>243</ele>
        <time>2021-06-12T22:22:47+02:00</time>
      </trkpt>
      <trkpt lat="43.56017" lon="3.31581">
        <ele>238</ele>
        <time>2021-06-12T22:22:52+02:00</time>
      </trkpt>
      <trkpt lat="43.56003" lon="3.31608">
        <ele>239</ele>
        <time>2021-06-12T22:22:57+02:00</time>
      </trkpt>
      <trkpt lat="43.5601" lon="3.3164">
        <ele>237</ele>
        <time>2021-06-12T22:23:02+02:00</time>
      </trkpt>
      <trkpt lat="43.56004" lon="3.31693">
        <ele>241</ele>
        <time>2021-06-12T22:23:07+02:00</time>
      </trkpt>
      <trkpt lat="43.56018" lon="3.31718">
        <ele>238</ele>
        <time>2021-06-12T22:23:12+02:00</time>
      </trkpt>
      <trkpt lat="43.56053" lon="3.31751">
        <ele>231</ele>
        <time>2021-06-12T22:23:17+02:00</time>
      </trkpt>
      <trkpt lat="43.56082" lon="3.3178">
        <ele>228</ele>
        <time>2021-06-12T22:23:22+02:00</time>
      </trkpt>
      <trkpt lat="43.56091" lon="3.31817">
        <ele>226</ele>
        <time>2021-06-12T22:23:27+02:00</time>
      </trkpt>
      <trkpt lat="43.56134" lon="3.31866">
        <ele>218</ele>
        <time>2021-06-12T22:23:32+02:00</time>
      </trkpt>
      <trkpt lat="43.56164" lon="3.31928">
        <ele>208</ele>
        <time>2021-06-12T22:23:37+02:00</time>
      </trkpt>
      <trkpt lat="43.56197" lon="3.32">
        <ele>203</ele>
        <time>2021-06-12T22:23:42+02:00</time>
      </trkpt>
      <trkpt lat="43.56231" lon="3.32065">
        <ele>193</ele>
        <time>2021-06-12T22:23:47+02:00</time>
      </trkpt>
      <trkpt lat="43.56256" lon="3.32084">
        <ele>188</ele>
        <time>2021-06-12T22:23:52+02:00</time>
      </trkpt>
      <trkpt lat="43.56275" lon="3.32101">
        <ele>184</ele>
        <time>2021-06-12T22:23:57+02:00</time>
      </trkpt>
      <trkpt lat="43.56292" lon="3.32188">
        <ele>181</ele>
        <time>2021-06-12T22:24:02+02:00</time>
      </trkpt>
      <trkpt lat="43.56292" lon="3.32188">
        <ele>181</ele>
        <time>2021-06-12T22:24:07+02:00</time>
      </trkpt>
      <trkpt lat="43.56318" lon="3.32224">
        <ele>182</ele>
        <time>2021-06-12T22:24:12+02:00</time>
      </trkpt>
      <trkpt lat="43.56314" lon="3.32249">
        <ele>180</ele>
        <time>2021-06-12T22:24:17+02:00</time>
      </trkpt>
      <trkpt lat="43.56306" lon="3.3229">
        <ele>178</ele>
        <time>2021-06-12T22:24:22+02:00</time>
      </trkpt>
      <trkpt lat="43.56288" lon="3.32335">
        <ele>180</ele>
        <time>2021-06-12T22:24:27+02:00</time>
      </trkpt>
      <trkpt lat="43.56257" lon="3.3241">
        <ele>185</ele>
        <time>2021-06-12T22:24:32+02:00</time>
      </trkpt>
      <trkpt lat="43.56244" lon="3.32472">
        <ele>186</ele>
        <time>2021-06-12T22:24:37+02:00</time>
      </trkpt>
      <trkpt lat="43.56231" lon="3.32505">
        <ele>187</ele>
        <time>2021-06-12T22:24:42+02:00</time>
      </trkpt>
      <trkpt lat="43.56219" lon="3.32527">
        <ele>187</ele>
        <time>2021-06-12T22:24:47+02:00</time>
      </trkpt>
      <trkpt lat="43.56211" lon="3.32541">
        <ele>189</ele>
        <time>2021-06-12T22:24:52+02:00</time>
      </trkpt>
      <trkpt lat="43.56206" lon="3.32539">
        <ele>191</ele>
        <time>2021-06-12T22:24:57+02:00</time>
      </trkpt>
      <trkpt lat="43.56209" lon="3.32511">
        <ele>193</ele>
        <time>2021-06-12T22:25:02+02:00</time>
      </trkpt>
      <trkpt lat="43.56222" lon="3.32488">
        <ele>192</ele>
        <time>2021-06-12T22:25:07+02:00</time>
      </trkpt>
      <trkpt lat="43.56227" lon="3.32433">
        <ele>193</ele>
        <time>2021-06-12T22:25:12+02:00</time>
      </trkpt>
      <trkpt lat="43.56225" lon="3.32371">
        <ele>195</ele>
        <time>2021-06-12T22:25:17+02:00</time>
      </trkpt>
      <trkpt lat="43.56213" lon="3.32363">
        <ele>200</ele>
        <time>2021-06-12T22:25:22+02:00</time>
      </trkpt>
      <trkpt lat="43.56213" lon="3.32386">
        <ele>199</ele>
        <time>2021-06-12T22:25:27+02:00</time>
      </trkpt>
      <trkpt lat="43.56213" lon="3.32386">
        <ele>199</ele>
        <time>2021-06-12T22:25:32+02:00</time>
      </trkpt>
      <trkpt lat="43.56195" lon="3.32446">
        <ele>204</ele>
        <time>2021-06-12T22:25:37+02:00</time>
      </trkpt>
      <trkpt lat="43.56186" lon="3.3248">
        <ele>205</ele>
        <time>2021-06-12T22:25:42+02:00</time>
      </trkpt>
      <trkpt lat="43.56162" lon="3.3252">
        <ele>209</ele>
        <time>2021-06-12T22:25:47+02:00</time>
      </trkpt>
      <trkpt lat="43.56131" lon="3.32569">
        <ele>212</ele>
        <time>2021-06-12T22:25:52+02:00</time>
      </trkpt>
      <trkpt lat="43.56103" lon="3.32599">
        <ele>215</ele>
        <time>2021-06-12T22:25:57+02:00</time>
      </trkpt>
      <trkpt lat="43.56066" lon="3.32618">
        <ele>218</ele>
        <time>2021-06-12T22:26:02+02:00</time>
      </trkpt>
      <trkpt lat="43.56045" lon="3.32629">
        <ele>223</ele>
        <time>2021-06-12T22:26:07+02:00</time>
      </trkpt>
      <trkpt lat="43.56036" lon="3.32641">
        <ele>224</ele>
        <time>2021-06-12T22:26:12+02:00</time>
      </trkpt>
      <trkpt lat="43.56028" lon="3.32677">
        <ele>227</ele>
        <time>2021-06-12T22:26:17+02:00</time>
      </trkpt>
      <trkpt lat="43.56021" lon="3.32724">
        <ele>229</ele>
        <time>2021-06-12T22:26:22+02:00</time>
      </trkpt>
      <trkpt lat="43.56028" lon="3.32748">
        <ele>230</ele>
        <time>2021-06-12T22:26:27+02:00</time>
      </trkpt>
      <trkpt lat="43.56038" lon="3.32762">
        <ele>228</ele>
        <time>2021-06-12T22:26:32+02:00</time>
      </trkpt>
      <trkpt lat="43.56038" lon="3.32831">
        <ele>231</ele>
        <time>2021-06-12T22:26:37+02:00</time>
      </trkpt>
      <trkpt lat="43.56019" lon="3.32879">
        <ele>234</ele>
        <time>2021-06-12T22:26:42+02:00</time>
      </trkpt>
      <trkpt lat="43.56001" lon="3.32906">
        <ele>237</ele>
        <time>2021-06-12T22:26:47+02:00</time>
      </trkpt>
      <trkpt lat="43.55979" lon="3.32914">
        <ele>239</ele>
        <time>2021-06-12T22:26:52+02:00</time>
      </trkpt>
      <trkpt lat="43.55979" lon="3.32914">
        <ele>239</ele>
        <time>2021-06-12T22:26:57+02:00</time>
      </trkpt>
      <trkpt lat="43.55953" lon="3.32929">
        <ele>241</ele>
        <time>2021-06-12T22:27:02+02:00</time>
      </trkpt>
      <trkpt lat="43.55932" lon="3.32964">
        <ele>241</ele>
        <time>2021-06-12T22:27:07+02:00</time>
      </trkpt>
      <trkpt lat="43.55903" lon="3.33025">
        <ele>241</ele>
        <time>2021-06-12T22:27:12+02:00</time>
      </trkpt>
      <trkpt lat="43.55889" lon="3.33048">
        <ele>241</ele>
        <time>2021-06-12T22:27:17+02:00</time>
      </trkpt>
      <trkpt lat="43.55825" lon="3.33163">
        <ele>241</ele>
        <time>2021-06-12T22:27:22+02:00</time>
      </trkpt>
      <trkpt lat="43.55799" lon="3.33224">
        <ele>243</ele>
        <time>2021-06-12T22:27:27+02:00</time>
      </trkpt>
      <trkpt lat="43.55767" lon="3.33322">
        <ele>248</ele>
        <time>2021-06-12T22:27:32+02:00</time>
      </trkpt>
      <trkpt lat="43.55741" lon="3.3339">
        <ele>251</ele>
        <time>2021-06-12T22:27:37+02:00</time>
      </trkpt>
      <trkpt lat="43.55703" lon="3.3345">
        <ele>257</ele>
        <time>2021-06-12T22:27:42+02:00</time>
      </trkpt>
      <trkpt lat="43.55694" lon="3.33468">
        <ele>258</ele>
        <time>2021-06-12T22:27:47+02:00</time>
      </trkpt>
      <trkpt lat="43.55674" lon="3.33594">
        <ele>262</ele>
        <time>2021-06-12T22:27:52+02:00</time>
      </trkpt>
      <trkpt lat="43.55657" lon="3.3366">
        <ele>268</ele>
        <time>2021-06-12T22:27:57+02:00</time>
      </trkpt>
      <trkpt lat="43.55656" lon="3.33739">
        <ele>268</ele>
        <time>2021-06-12T22:28:02+02:00</time>
      </trkpt>
      <trkpt lat="43.55634" lon="3.33833">
        <ele>274</ele>
        <time>2021-06-12T22:28:07+02:00</time>
      </trkpt>
      <trkpt lat="43.55631" lon="3.3385">
        <ele>277</ele>
        <time>2021-06-12T22:28:12+02:00</time>
      </trkpt>
      <trkpt lat="43.55623" lon="3.33952">
        <ele>282</ele>
        <time>2021-06-12T22:28:17+02:00</time>
      </trkpt>
      <trkpt lat="43.55623" lon="3.33952">
        <ele>282</ele>
        <time>2021-06-12T22:28:22+02:00</time>
      </trkpt>
      <trkpt lat="43.55611" lon="3.34015">
        <ele>285</ele>
        <time>2021-06-12T22:28:27+02:00</time>
      </trkpt>
      <trkpt lat="43.55621" lon="3.34049">
        <ele>285</ele>
        <time>2021-06-12T22:28:32+02:00</time>
      </trkpt>
      <trkpt lat="43.55641" lon="3.34099">
        <ele>288</ele>
        <time>2021-06-12T22:28:37+02:00</time>
      </trkpt>
      <trkpt lat="43.55661" lon="3.34108">
        <ele>286</ele>
        <time>2021-06-12T22:28:42+02:00</time>
      </trkpt>
      <trkpt lat="43.55694" lon="3.34132">
        <ele>282</ele>
        <time>2021-06-12T22:28:47+02:00</time>
      </trkpt>
      <trkpt lat="43.55714" lon="3.34148">
        <ele>282</ele>
        <time>2021-06-12T22:28:52+02:00</time>
      </trkpt>
      <trkpt lat="43.5574" lon="3.34209">
        <ele>274</ele>
        <time>2021-06-12T22:28:57+02:00</time>
      </trkpt>
      <trkpt lat="43.55765" lon="3.34311">
        <ele>267</ele>
        <time>2021-06-12T22:29:02+02:00</time>
      </trkpt>
      <trkpt lat="43.55788" lon="3.34457">
        <ele>270</ele>
        <time>2021-06-12T22:29:07+02:00</time>
      </trkpt>
      <trkpt lat="43.55793" lon="3.34474">
        <ele>272</ele>
        <time>2021-06-12T22:29:12+02:00</time>
      </trkpt>
      <trkpt lat="43.55791" lon="3.34488">
        <ele>273</ele>
        <time>2021-06-12T22:29:17+02:00</time>
      </trkpt>
      <trkpt lat="43.55792" lon="3.34497">
        <ele>275</ele>
        <time>2021-06-12T22:29:22+02:00</time>
      </trkpt>
      <trkpt lat="43.55798" lon="3.34508">
        <ele>276</ele>
        <time>2021-06-12T22:29:27+02:00</time>
      </trkpt>
      <trkpt lat="43.55792" lon="3.34517">
        <ele>277</ele>
        <time>2021-06-12T22:29:32+02:00</time>
      </trkpt>
      <trkpt lat="43.55795" lon="3.3453">
        <ele>279</ele>
        <time>2021-06-12T22:29:37+02:00</time>
      </trkpt>
      <trkpt lat="43.55794" lon="3.34541">
        <ele>279</ele>
        <time>2021-06-12T22:29:42+02:00</time>
      </trkpt>
      <trkpt lat="43.55794" lon="3.34541">
        <ele>279</ele>
        <time>2021-06-12T22:29:47+02:00</time>
      </trkpt>
      <trkpt lat="43.55797" lon="3.3455">
        <ele>281</ele>
        <time>2021-06-12T22:29:52+02:00</time>
      </trkpt>
      <trkpt lat="43.558" lon="3.34553">
        <ele>282</ele>
        <time>2021-06-12T22:29:57+02:00</time>
      </trkpt>
      <trkpt lat="43.55808" lon="3.34589">
        <ele>282</ele>
        <time>2021-06-12T22:30:02+02:00</time>
      </trkpt>
      <trkpt lat="43.55822" lon="3.34639">
        <ele>274</ele>
        <time>2021-06-12T22:30:07+02:00</time>
      </trkpt>
      <trkpt lat="43.55827" lon="3.34657">
        <ele>273</ele>
        <time>2021-06-12T22:30:12+02:00</time>
      </trkpt>
      <trkpt lat="43.55831" lon="3.34665">
        <ele>274</ele>
        <time>2021-06-12T22:30:17+02:00</time>
      </trkpt>
      <trkpt lat="43.55832" lon="3.34673">
        <ele>274</ele>
        <time>2021-06-12T22:30:22+02:00</time>
      </trkpt>
      <trkpt lat="43.55842" lon="3.34692">
        <ele>272</ele>
        <time>2021-06-12T22:30:27+02:00</time>
      </trkpt>
      <trkpt lat="43.55842" lon="3.34726">
        <ele>272</ele>
        <time>2021-06-12T22:30:32+02:00</time>
      </trkpt>
      <trkpt lat="43.55849" lon="3.34737">
        <ele>271</ele>
        <time>2021-06-12T22:30:37+02:00</time>
      </trkpt>
      <trkpt lat="43.5585" lon="3.34745">
        <ele>272</ele>
        <time>2021-06-12T22:30:42+02:00</time>
      </trkpt>
      <trkpt lat="43.55859" lon="3.34795">
        <ele>274</ele>
        <time>2021-06-12T22:30:47+02:00</time>
      </trkpt>
      <trkpt lat="43.5587" lon="3.34835">
        <ele>271</ele>
        <time>2021-06-12T22:30:52+02:00</time>
      </trkpt>
      <trkpt lat="43.55869" lon="3.3485">
        <ele>271</ele>
        <time>2021-06-12T22:30:57+02:00</time>
      </trkpt>
      <trkpt lat="43.55871" lon="3.34862">
        <ele>270</ele>
        <time>2021-06-12T22:31:02+02:00</time>
      </trkpt>
      <trkpt lat="43.55883" lon="3.34878">
        <ele>270</ele>
        <time>2021-06-12T22:31:07+02:00</time>
      </trkpt>
      <trkpt lat="43.55883" lon="3.34878">
        <ele>270</ele>
        <time>2021-06-12T22:31:12+02:00</time>
      </trkpt>
      <trkpt lat="43.55888" lon="3.34903">
        <ele>270</ele>
        <time>2021-06-12T22:31:17+02:00</time>
      </trkpt>
      <trkpt lat="43.55892" lon="3.34911">
        <ele>269</ele>
        <time>2021-06-12T22:31:22+02:00</time>
      </trkpt>
      <trkpt lat="43.55894" lon="3.34943">
        <ele>269</ele>
        <time>2021-06-12T22:31:27+02:00</time>
      </trkpt>
      <trkpt lat="43.55899" lon="3.34972">
        <ele>268</ele>
        <time>2021-06-12T22:31:32+02:00</time>
      </trkpt>
      <trkpt lat="43.5591" lon="3.35013">
        <ele>268</ele>
        <time>2021-06-12T22:31:37+02:00</time>
      </trkpt>
      <trkpt lat="43.55913" lon="3.35024">
        <ele>268</ele>
        <time>2021-06-12T22:31:42+02:00</time>
      </trkpt>
      <trkpt lat="43.55912" lon="3.3504">
        <ele>268</ele>
        <time>2021-06-12T22:31:47+02:00</time>
      </trkpt>
      <trkpt lat="43.55922" lon="3.35064">
        <ele>268</ele>
        <time>2021-06-12T22:31:52+02:00</time>
      </trkpt>
      <trkpt lat="43.55923" lon="3.35077">
        <ele>267</ele>
        <time>2021-06-12T22:31:57+02:00</time>
      </trkpt>
      <trkpt lat="43.55927" lon="3.35082">
        <ele>266</ele>
        <time>2021-06-12T22:32:02+02:00</time>
      </trkpt>
      <trkpt lat="43.55927" lon="3.35094">
        <ele>265</ele>
        <time>2021-06-12T22:32:07+02:00</time>
      </trkpt>
      <trkpt lat="43.55933" lon="3.35127">
        <ele>261</ele>
        <time>2021-06-12T22:32:12+02:00</time>
      </trkpt>
      <trkpt lat="43.55939" lon="3.35147">
        <ele>260</ele>
        <time>2021-06-12T22:32:17+02:00</time>
      </trkpt>
      <trkpt lat="43.55942" lon="3.35176">
        <ele>260</ele>
        <time>2021-06-12T22:32:22+02:00</time>
      </trkpt>
      <trkpt lat="43.55941" lon="3.3523">
        <ele>257</ele>
        <time>2021-06-12T22:32:27+02:00</time>
      </trkpt>
      <trkpt lat="43.55943" lon="3.35293">
        <ele>255</ele>
        <time>2021-06-12T22:32:32+02:00</time>
      </trkpt>
      <trkpt lat="43.55943" lon="3.35293">
        <ele>255</ele>
        <time>2021-06-12T22:32:37+02:00</time>
      </trkpt>
      <trkpt lat="43.55936" lon="3.35314">
        <ele>254</ele>
        <time>2021-06-12T22:32:42+02:00</time>
      </trkpt>
      <trkpt lat="43.55932" lon="3.35321">
        <ele>253</ele>
        <time>2021-06-12T22:32:47+02:00</time>
      </trkpt>
      <trkpt lat="43.55928" lon="3.35336">
        <ele>251</ele>
        <time>2021-06-12T22:32:52+02:00</time>
      </trkpt>
      <trkpt lat="43.55923" lon="3.3534">
        <ele>250</ele>
        <time>2021-06-12T22:32:57+02:00</time>
      </trkpt>
      <trkpt lat="43.55917" lon="3.35347">
        <ele>249</ele>
        <time>2021-06-12T22:33:02+02:00</time>
      </trkpt>
      <trkpt lat="43.55914" lon="3.35357">
        <ele>246</ele>
        <time>2021-06-12T22:33:07+02:00</time>
      </trkpt>
      <trkpt lat="43.55913" lon="3.35366">
        <ele>243</ele>
        <time>2021-06-12T22:33:12+02:00</time>
      </trkpt>
      <trkpt lat="43.5592" lon="3.35376">
        <ele>241</ele>
        <time>2021-06-12T22:33:17+02:00</time>
      </trkpt>
      <trkpt lat="43.55922" lon="3.35393">
        <ele>236</ele>
        <time>2021-06-12T22:33:22+02:00</time>
      </trkpt>
      <trkpt lat="43.5593" lon="3.35402">
        <ele>234</ele>
        <time>2021-06-12T22:33:27+02:00</time>
      </trkpt>
      <trkpt lat="43.55943" lon="3.3541">
        <ele>233</ele>
        <time>2021-06-12T22:33:32+02:00</time>
      </trkpt>
      <trkpt lat="43.55972" lon="3.35443">
        <ele>227</ele>
        <time>2021-06-12T22:33:37+02:00</time>
      </trkpt>
      <trkpt lat="43.55991" lon="3.35469">
        <ele>224</ele>
        <time>2021-06-12T22:33:42+02:00</time>
      </trkpt>
      <trkpt lat="43.56" lon="3.3548">
        <ele>224</ele>
        <time>2021-06-12T22:33:47+02:00</time>
      </trkpt>
      <trkpt lat="43.56007" lon="3.3551">
        <ele>227</ele>
        <time>2021-06-12T22:33:52+02:00</time>
      </trkpt>
      <trkpt lat="43.56011" lon="3.35521">
        <ele>228</ele>
        <time>2021-06-12T22:33:57+02:00</time>
      </trkpt>
      <trkpt lat="43.56011" lon="3.35521">
        <ele>228</ele>
        <time>2021-06-12T22:34:02+02:00</time>
      </trkpt>
      <trkpt lat="43.5602" lon="3.35538">
        <ele>231</ele>
        <time>2021-06-12T22:34:07+02:00</time>
      </trkpt>
      <trkpt lat="43.56023" lon="3.35554">
        <ele>234</ele>
        <time>2021-06-12T22:34:12+02:00</time>
      </trkpt>
      <trkpt lat="43.56044" lon="3.35571">
        <ele>236</ele>
        <time>2021-06-12T22:34:17+02:00</time>
      </trkpt>
      <trkpt lat="43.56052" lon="3.35587">
        <ele>240</ele>
        <time>2021-06-12T22:34:22+02:00</time>
      </trkpt>
      <trkpt lat="43.56062" lon="3.356">
        <ele>241</ele>
        <time>2021-06-12T22:34:27+02:00</time>
      </trkpt>
      <trkpt lat="43.56073" lon="3.3561">
        <ele>243</ele>
        <time>2021-06-12T22:34:32+02:00</time>
      </trkpt>
      <trkpt lat="43.56081" lon="3.35617">
        <ele>244</ele>
        <time>2021-06-12T22:34:37+02:00</time>
      </trkpt>
      <trkpt lat="43.56091" lon="3.35649">
        <ele>249</ele>
        <time>2021-06-12T22:34:42+02:00</time>
      </trkpt>
      <trkpt lat="43.56094" lon="3.35662">
        <ele>251</ele>
        <time>2021-06-12T22:34:47+02:00</time>
      </trkpt>
      <trkpt lat="43.56097" lon="3.35685">
        <ele>253</ele>
        <time>2021-06-12T22:34:52+02:00</time>
      </trkpt>
      <trkpt lat="43.56106" lon="3.35694">
        <ele>256</ele>
        <time>2021-06-12T22:34:57+02:00</time>
      </trkpt>
      <trkpt lat="43.56114" lon="3.35704">
        <ele>258</ele>
        <time>2021-06-12T22:35:02+02:00</time>
      </trkpt>
      <trkpt lat="43.56118" lon="3.35716">
        <ele>258</ele>
        <time>2021-06-12T22:35:07+02:00</time>
      </trkpt>
      <trkpt lat="43.56124" lon="3.35731">
        <ele>260</ele>
        <time>2021-06-12T22:35:12+02:00</time>
      </trkpt>
      <trkpt lat="43.5612" lon="3.35742">
        <ele>263</ele>
        <time>2021-06-12T22:35:17+02:00</time>
      </trkpt>
      <trkpt lat="43.56121" lon="3.35761">
        <ele>266</ele>
        <time>2021-06-12T22:35:22+02:00</time>
      </trkpt>
      <trkpt lat="43.56121" lon="3.35761">
        <ele>266</ele>
        <time>2021-06-12T22:35:27+02:00</time>
      </trkpt>
      <trkpt lat="43.56121" lon="3.35766">
        <ele>266</ele>
        <time>2021-06-12T22:35:32+02:00</time>
      </trkpt>
      <trkpt lat="43.56126" lon="3.35784">
        <ele>269</ele>
        <time>2021-06-12T22:35:37+02:00</time>
      </trkpt>
      <trkpt lat="43.56132" lon="3.35794">
        <ele>272</ele>
        <time>2021-06-12T22:35:42+02:00</time>
      </trkpt>
      <trkpt lat="43.56137" lon="3.358">
        <ele>275</ele>
        <time>2021-06-12T22:35:47+02:00</time>
      </trkpt>
      <trkpt lat="43.56137" lon="3.35805">
        <ele>277</ele>
        <time>2021-06-12T22:35:52+02:00</time>
      </trkpt>
      <trkpt lat="43.56141" lon="3.35819">
        <ele>277</ele>
        <time>2021-06-12T22:35:57+02:00</time>
      </trkpt>
      <trkpt lat="43.56146" lon="3.35827">
        <ele>276</ele>
        <time>2021-06-12T22:36:02+02:00</time>
      </trkpt>
      <trkpt lat="43.56167" lon="3.35889">
        <ele>279</ele>
        <time>2021-06-12T22:36:07+02:00</time>
      </trkpt>
      <trkpt lat="43.56177" lon="3.35903">
        <ele>275</ele>
        <time>2021-06-12T22:36:12+02:00</time>
      </trkpt>
      <trkpt lat="43.56179" lon="3.35913">
        <ele>275</ele>
        <time>2021-06-12T22:36:17+02:00</time>
      </trkpt>
      <trkpt lat="43.56181" lon="3.35931">
        <ele>275</ele>
        <time>2021-06-12T22:36:22+02:00</time>
      </trkpt>
      <trkpt lat="43.56195" lon="3.35957">
        <ele>279</ele>
        <time>2021-06-12T22:36:27+02:00</time>
      </trkpt>
      <trkpt lat="43.562" lon="3.35979">
        <ele>280</ele>
        <time>2021-06-12T22:36:32+02:00</time>
      </trkpt>
      <trkpt lat="43.56206" lon="3.35987">
        <ele>279</ele>
        <time>2021-06-12T22:36:37+02:00</time>
      </trkpt>
      <trkpt lat="43.56217" lon="3.36016">
        <ele>279</ele>
        <time>2021-06-12T22:36:42+02:00</time>
      </trkpt>
      <trkpt lat="43.56225" lon="3.36029">
        <ele>279</ele>
        <time>2021-06-12T22:36:47+02:00</time>
      </trkpt>
      <trkpt lat="43.56225" lon="3.36029">
        <ele>279</ele>
        <time>2021-06-12T22:36:52+02:00</time>
      </trkpt>
      <trkpt lat="43.56228" lon="3.3603">
        <ele>278</ele>
        <time>2021-06-12T22:36:57+02:00</time>
      </trkpt>
      <trkpt lat="43.56232" lon="3.3603">
        <ele>276</ele>
        <time>2021-06-12T22:37:02+02:00</time>
      </trkpt>
      <trkpt lat="43.56236" lon="3.36038">
        <ele>273</ele>
        <time>2021-06-12T22:37:07+02:00</time>
      </trkpt>
      <trkpt lat="43.56239" lon="3.36039">
        <ele>272</ele>
        <time>2021-06-12T22:37:12+02:00</time>
      </trkpt>
      <trkpt lat="43.56245" lon="3.36034">
        <ele>271</ele>
        <time>2021-06-12T22:37:17+02:00</time>
      </trkpt>
      <trkpt lat="43.56253" lon="3.36041">
        <ele>267</ele>
        <time>2021-06-12T22:37:22+02:00</time>
      </trkpt>
      <trkpt lat="43.56258" lon="3.36045">
        <ele>264</ele>
        <time>2021-06-12T22:37:27+02:00</time>
      </trkpt>
      <trkpt lat="43.56261" lon="3.36044">
        <ele>263</ele>
        <time>2021-06-12T22:37:32+02:00</time>
      </trkpt>
      <trkpt lat="43.56264" lon="3.3604">
        <ele>262</ele>
        <time>2021-06-12T22:37:37+02:00</time>
      </trkpt>
      <trkpt lat="43.56275" lon="3.36046">
        <ele>257</ele>
        <time>2021-06-12T22:37:42+02:00</time>
      </trkpt>
      <trkpt lat="43.56282" lon="3.36038">
        <ele>254</ele>
        <time>2021-06-12T22:37:47+02:00</time>
      </trkpt>
      <trkpt lat="43.56285" lon="3.36038">
        <ele>252</ele>
        <time>2021-06-12T22:37:52+02:00</time>
      </trkpt>
      <trkpt lat="43.56293" lon="3.36045">
        <ele>247</ele>
        <time>2021-06-12T22:37:57+02:00</time>
      </trkpt>
      <trkpt lat="43.56297" lon="3.36047">
        <ele>244</ele>
        <time>2021-06-12T22:38:02+02:00</time>
      </trkpt>
      <trkpt lat="43.56298" lon="3.36042">
        <ele>244</ele>
        <time>2021-06-12T22:38:07+02:00</time>
      </trkpt>
      <trkpt lat="43.56309" lon="3.36049">
        <ele>238</ele>
        <time>2021-06-12T22:38:12+02:00</time>
      </trkpt>
      <trkpt lat="43.56309" lon="3.36049">
        <ele>238</ele>
        <time>2021-06-12T22:38:17+02:00</time>
      </trkpt>
      <trkpt lat="43.56317" lon="3.36031">
        <ele>233</ele>
        <time>2021-06-12T22:38:22+02:00</time>
      </trkpt>
      <trkpt lat="43.56328" lon="3.36049">
        <ele>226</ele>
        <time>2021-06-12T22:38:27+02:00</time>
      </trkpt>
      <trkpt lat="43.56336" lon="3.36052">
        <ele>222</ele>
        <time>2021-06-12T22:38:32+02:00</time>
      </trkpt>
      <trkpt lat="43.56337" lon="3.36043">
        <ele>222</ele>
        <time>2021-06-12T22:38:37+02:00</time>
      </trkpt>
      <trkpt lat="43.56337" lon="3.36014">
        <ele>220</ele>
        <time>2021-06-12T22:38:42+02:00</time>
      </trkpt>
      <trkpt lat="43.56349" lon="3.36036">
        <ele>216</ele>
        <time>2021-06-12T22:38:47+02:00</time>
      </trkpt>
      <trkpt lat="43.56358" lon="3.3604">
        <ele>211</ele>
        <time>2021-06-12T22:38:52+02:00</time>
      </trkpt>
      <trkpt lat="43.56359" lon="3.36033">
        <ele>210</ele>
        <time>2021-06-12T22:38:57+02:00</time>
      </trkpt>
      <trkpt lat="43.56359" lon="3.36032">
        <ele>210</ele>
        <time>2021-06-12T22:39:02+02:00</time>
      </trkpt>
      <trkpt lat="43.56365" lon="3.36025">
        <ele>207</ele>
        <time>2021-06-12T22:39:07+02:00</time>
      </trkpt>
      <trkpt lat="43.56372" lon="3.36033">
        <ele>204</ele>
        <time>2021-06-12T22:39:12+02:00</time>
      </trkpt>
      <trkpt lat="43.56377" lon="3.36019">
        <ele>200</ele>
        <time>2021-06-12T22:39:17+02:00</time>
      </trkpt>
      <trkpt lat="43.56379" lon="3.35987">
        <ele>195</ele>
        <time>2021-06-12T22:39:22+02:00</time>
      </trkpt>
      <trkpt lat="43.56381" lon="3.35967">
        <ele>190</ele>
        <time>2021-06-12T22:39:27+02:00</time>
      </trkpt>
      <trkpt lat="43.56379" lon="3.3595">
        <ele>189</ele>
        <time>2021-06-12T22:39:32+02:00</time>
      </trkpt>
      <trkpt lat="43.56377" lon="3.35927">
        <ele>188</ele>
        <time>2021-06-12T22:39:37+02:00</time>
      </trkpt>
      <trkpt lat="43.56377" lon="3.35927">
        <ele>188</ele>
        <time>2021-06-12T22:39:42+02:00</time>
      </trkpt>
      <trkpt lat="43.56386" lon="3.35876">
        <ele>182</ele>
        <time>2021-06-12T22:39:47+02:00</time>
      </trkpt>
      <trkpt lat="43.56388" lon="3.35866">
        <ele>180</ele>
        <time>2021-06-12T22:39:52+02:00</time>
      </trkpt>
      <trkpt lat="43.56386" lon="3.35856">
        <ele>178</ele>
        <time>2021-06-12T22:39:57+02:00</time>
      </trkpt>
      <trkpt lat="43.56394" lon="3.35847">
        <ele>173</ele>
        <time>2021-06-12T22:40:02+02:00</time>
      </trkpt>
      <trkpt lat="43.56394" lon="3.3583">
        <ele>169</ele>
        <time>2021-06-12T22:40:07+02:00</time>
      </trkpt>
      <trkpt lat="43.56388" lon="3.35811">
        <ele>164</ele>
        <time>2021-06-12T22:40:12+02:00</time>
      </trkpt>
      <trkpt lat="43.56387" lon="3.35808">
        <ele>163</ele>
        <time>2021-06-12T22:40:17+02:00</time>
      </trkpt>
      <trkpt lat="43.5639" lon="3.35798">
        <ele>159</ele>
        <time>2021-06-12T22:40:22+02:00</time>
      </trkpt>
      <trkpt lat="43.564" lon="3.35794">
        <ele>156</ele>
        <time>2021-06-12T22:40:27+02:00</time>
      </trkpt>
      <trkpt lat="43.56406" lon="3.35786">
        <ele>153</ele>
        <time>2021-06-12T22:40:32+02:00</time>
      </trkpt>
      <trkpt lat="43.56402" lon="3.35783">
        <ele>152</ele>
        <time>2021-06-12T22:40:37+02:00</time>
      </trkpt>
      <trkpt lat="43.56399" lon="3.35775">
        <ele>150</ele>
        <time>2021-06-12T22:40:42+02:00</time>
      </trkpt>
      <trkpt lat="43.56411" lon="3.35773">
        <ele>148</ele>
        <time>2021-06-12T22:40:47+02:00</time>
      </trkpt>
      <trkpt lat="43.56419" lon="3.35753">
        <ele>139</ele>
        <time>2021-06-12T22:40:52+02:00</time>
      </trkpt>
      <trkpt lat="43.56431" lon="3.35734">
        <ele>132</ele>
        <time>2021-06-12T22:40:57+02:00</time>
      </trkpt>
      <trkpt lat="43.56437" lon="3.35724">
        <ele>129</ele>
        <time>2021-06-12T22:41:02+02:00</time>
      </trkpt>
      <trkpt lat="43.56437" lon="3.35724">
        <ele>129</ele>
        <time>2021-06-12T22:41:07+02:00</time>
      </trkpt>
      <trkpt lat="43.5644" lon="3.35715">
        <ele>127</ele>
        <time>2021-06-12T22:41:12+02:00</time>
      </trkpt>
      <trkpt lat="43.56453" lon="3.35694">
        <ele>122</ele>
        <time>2021-06-12T22:41:17+02:00</time>
      </trkpt>
      <trkpt lat="43.56449" lon="3.35684">
        <ele>121</ele>
        <time>2021-06-12T22:41:22+02:00</time>
      </trkpt>
      <trkpt lat="43.56445" lon="3.35672">
        <ele>120</ele>
        <time>2021-06-12T22:41:27+02:00</time>
      </trkpt>
      <trkpt lat="43.56456" lon="3.35674">
        <ele>118</ele>
        <time>2021-06-12T22:41:32+02:00</time>
      </trkpt>
      <trkpt lat="43.56477" lon="3.35686">
        <ele>116</ele>
        <time>2021-06-12T22:41:37+02:00</time>
      </trkpt>
      <trkpt lat="43.56487" lon="3.35696">
        <ele>114</ele>
        <time>2021-06-12T22:41:42+02:00</time>
      </trkpt>
      <trkpt lat="43.56498" lon="3.35691">
        <ele>111</ele>
        <time>2021-06-12T22:41:47+02:00</time>
      </trkpt>
      <trkpt lat="43.56499" lon="3.35666">
        <ele>109</ele>
        <time>2021-06-12T22:41:52+02:00</time>
      </trkpt>
      <trkpt lat="43.56504" lon="3.35639">
        <ele>110</ele>
        <time>2021-06-12T22:41:57+02:00</time>
      </trkpt>
      <trkpt lat="43.56512" lon="3.35634">
        <ele>110</ele>
        <time>2021-06-12T22:42:02+02:00</time>
      </trkpt>
      <trkpt lat="43.56525" lon="3.35634">
        <ele>110</ele>
        <time>2021-06-12T22:42:07+02:00</time>
      </trkpt>
      <trkpt lat="43.56544" lon="3.35664">
        <ele>109</ele>
        <time>2021-06-12T22:42:12+02:00</time>
      </trkpt>
      <trkpt lat="43.56559" lon="3.35692">
        <ele>108</ele>
        <time>2021-06-12T22:42:17+02:00</time>
      </trkpt>
      <trkpt lat="43.56573" lon="3.35759">
        <ele>106</ele>
        <time>2021-06-12T22:42:22+02:00</time>
      </trkpt>
      <trkpt lat="43.56576" lon="3.35813">
        <ele>104</ele>
        <time>2021-06-12T22:42:27+02:00</time>
      </trkpt>
      <trkpt lat="43.56576" lon="3.35813">
        <ele>104</ele>
        <time>2021-06-12T22:42:32+02:00</time>
      </trkpt>
      <trkpt lat="43.56584" lon="3.35854">
        <ele>101</ele>
        <time>2021-06-12T22:42:37+02:00</time>
      </trkpt>
      <trkpt lat="43.56626" lon="3.35928">
        <ele>103</ele>
        <time>2021-06-12T22:42:42+02:00</time>
      </trkpt>
      <trkpt lat="43.56676" lon="3.35977">
        <ele>106</ele>
        <time>2021-06-12T22:42:47+02:00</time>
      </trkpt>
      <trkpt lat="43.56737" lon="3.36049">
        <ele>110</ele>
        <time>2021-06-12T22:42:52+02:00</time>
      </trkpt>
      <trkpt lat="43.56769" lon="3.36066">
        <ele>113</ele>
        <time>2021-06-12T22:42:57+02:00</time>
      </trkpt>
      <trkpt lat="43.56773" lon="3.36119">
        <ele>115</ele>
        <time>2021-06-12T22:43:02+02:00</time>
      </trkpt>
      <trkpt lat="43.56781" lon="3.36156">
        <ele>118</ele>
        <time>2021-06-12T22:43:07+02:00</time>
      </trkpt>
      <trkpt lat="43.56815" lon="3.3622">
        <ele>117</ele>
        <time>2021-06-12T22:43:12+02:00</time>
      </trkpt>
      <trkpt lat="43.56844" lon="3.36241">
        <ele>113</ele>
        <time>2021-06-12T22:43:17+02:00</time>
      </trkpt>
      <trkpt lat="43.56885" lon="3.36273">
        <ele>111</ele>
        <time>2021-06-12T22:43:22+02:00</time>
      </trkpt>
      <trkpt lat="43.56903" lon="3.36283">
        <ele>109</ele>
        <time>2021-06-12T22:43:27+02:00</time>
      </trkpt>
      <trkpt lat="43.56921" lon="3.36282">
        <ele>108</ele>
        <time>2021-06-12T22:43:32+02:00</time>
      </trkpt>
      <trkpt lat="43.56958" lon="3.36257">
        <ele>110</ele>
        <time>2021-06-12T22:43:37+02:00</time>
      </trkpt>
      <trkpt lat="43.5702" lon="3.36263">
        <ele>110</ele>
        <time>2021-06-12T22:43:42+02:00</time>
      </trkpt>
      <trkpt lat="43.57073" lon="3.36277">
        <ele>109</ele>
        <time>2021-06-12T22:43:47+02:00</time>
      </trkpt>
      <trkpt lat="43.57114" lon="3.36294">
        <ele>107</ele>
        <time>2021-06-12T22:43:52+02:00</time>
      </trkpt>
      <trkpt lat="43.57114" lon="3.36294">
        <ele>107</ele>
        <time>2021-06-12T22:43:57+02:00</time>
      </trkpt>
      <trkpt lat="43.57131" lon="3.36312">
        <ele>106</ele>
        <time>2021-06-12T22:44:02+02:00</time>
      </trkpt>
      <trkpt lat="43.5722" lon="3.36339">
        <ele>103</ele>
        <time>2021-06-12T22:44:07+02:00</time>
      </trkpt>
      <trkpt lat="43.57236" lon="3.36343">
        <ele>103</ele>
        <time>2021-06-12T22:44:12+02:00</time>
      </trkpt>
      <trkpt lat="43.5725" lon="3.36346">
        <ele>102</ele>
        <time>2021-06-12T22:44:17+02:00</time>
      </trkpt>
      <trkpt lat="43.57265" lon="3.3635">
        <ele>102</ele>
        <time>2021-06-12T22:44:22+02:00</time>
      </trkpt>
      <trkpt lat="43.5728" lon="3.36353">
        <ele>102</ele>
        <time>2021-06-12T22:44:27+02:00</time>
      </trkpt>
      <trkpt lat="43.57289" lon="3.36356">
        <ele>101</ele>
        <time>2021-06-12T22:44:32+02:00</time>
      </trkpt>
      <trkpt lat="43.573" lon="3.36358">
        <ele>101</ele>
        <time>2021-06-12T22:44:37+02:00</time>
      </trkpt>
      <trkpt lat="43.57308" lon="3.36362">
        <ele>101</ele>
        <time>2021-06-12T22:44:42+02:00</time>
      </trkpt>
      <trkpt lat="43.57314" lon="3.36363">
        <ele>101</ele>
        <time>2021-06-12T22:44:47+02:00</time>
      </trkpt>
      <trkpt lat="43.57325" lon="3.36364">
        <ele>102</ele>
        <time>2021-06-12T22:44:52+02:00</time>
      </trkpt>
      <trkpt lat="43.57339" lon="3.36368">
        <ele>101</ele>
        <time>2021-06-12T22:44:57+02:00</time>
      </trkpt>
    </trkseg>
  </trk>
</gpx>